0J4

Florala Municipal Airport

Florala, Alabama, USA
METAR K0J4 210458Z AUTO 00000KT 10SM CLR 23/22 A3010 RMK AO2 SLP187 T02330217 403110228
Observed Flight Rules
Aug-21 @ 04:58 UTC (13 hours ago) Visual Flight Rules
Visibility Clouds
10 miles
  • Clear skies
Temperatures Readings
Current 23°C / 73°F
Dewpoint 22°C / 72°F
Humidity 94%
Altimeter 30.1" Hg
Pressure 1018.7 hPa
Elevation 96
METAR K0J4 210458Z AUTO 00000KT 10SM CLR 23/22 A3010 RMK AO2 SLP187 T02330217 403110228
Observed Flight Rules
Aug-21 @ 04:58 UTC
(13 hours ago)
VFR
Clouds
  • Clear skies
Temperature Dewpoint
23°C / 73°F 22°C / 72°F
Humidity Altimeter Pressure
94% 30.1" Hg 1018.7 hPa